If you wish to contribute or participate in the discussions about articles you are invited to join SKYbrary as a registered user

 Actions

Shahid Ashrafi Esfahani Airport

From SKYbrary Wiki

OICC
Airport
ICAO: OICC – IATA: KSH
Summary
Name Shahid Ashrafi Esfahani Airport
Region Middle East
Territory Iran IR.gif
Location Nokan, Kermanshah Province
Serving Kermanshah
Elevation 1,310.945 m
4,301 ft1,310.945 m
Coordinates 34° 21' 17.47" N, 47° 8' 49.80" E
Runways
Designator Length Width Surface ROPS
11/29 3418 m11,213.911 ft
45 m147.638 ft
ASP yes/yes


METAR
Observation OICC 220300Z 09012KT 9999 FEW020 SCT040CB BKN170 07/05 Q1006 A2973 TEMPO TSRA
Station Kermanshah
Date/Time 22 April 2019 03:00:00
Wind direction 90°
Wind speed 12 kts
Lowest cloud amount few clouds
Temperature 7°C
Dew point 5°C
Humidity 87%
QNH 1006 hPa
Weather condition n/a

Airport serving the city of Kermanshah and surrounding area in Iran.

Climatology

Hot summer Mediterranean climate (Köppen climate classification Csa).

Maps

Terrain

Loading map...

Airport Layout

Loading map...


Accidents & Serious Incidents at or in vicinity of OICC

None on SKYbrary